sensor_id;sensor_type;location;lat;lon;timestamp;pressure;altitude;pressure_sealevel;temperature;humidity
63654;BME280;49809;47.418;19.080;2022-12-18T00:00:30;101903.88;;;-4.19;100.00
63654;BME280;49809;47.418;19.080;2022-12-18T00:04:18;101902.66;;;-4.26;100.00
63654;BME280;49809;47.418;19.080;2022-12-18T00:08:09;101908.31;;;-4.32;100.00
63654;BME280;49809;47.418;19.080;2022-12-18T00:11:22;101923.31;;;-4.48;100.00
63654;BME280;49809;47.418;19.080;2022-12-18T00:15:03;101928.97;;;-4.43;100.00
63654;BME280;49809;47.418;19.080;2022-12-18T00:18:39;101936.62;;;-4.42;100.00
63654;BME280;49809;47.418;19.080;2022-12-18T00:22:18;101937.78;;;-4.46;100.00
63654;BME280;49809;47.418;19.080;2022-12-18T00:26:00;101944.25;;;-4.51;100.00
63654;BME280;49809;47.418;19.080;2022-12-18T00:29:41;101952.25;;;-4.43;100.00
63654;BME280;49809;47.418;19.080;2022-12-18T00:33:15;101958.31;;;-4.55;100.00
63654;BME280;49809;47.418;19.080;2022-12-18T00:36:53;101969.53;;;-4.67;100.00
63654;BME280;49809;47.418;19.080;2022-12-18T00:40:11;101970.22;;;-4.76;100.00
63654;BME280;49809;47.418;19.080;2022-12-18T00:43:35;101983.63;;;-4.71;100.00
63654;BME280;49809;47.418;19.080;2022-12-18T00:47:03;101983.63;;;-4.71;100.00
63654;BME280;49809;47.418;19.080;2022-12-18T00:50:24;101989.50;;;-4.69;100.00
63654;BME280;49809;47.418;19.080;2022-12-18T00:54:19;101995.87;;;-4.62;100.00
63654;BME280;49809;47.418;19.080;2022-12-18T00:58:01;102009.22;;;-4.68;100.00
63654;BME280;49809;47.418;19.080;2022-12-18T01:01:20;102007.53;;;-4.57;100.00
63654;BME280;49809;47.418;19.080;2022-12-18T01:04:56;102005.03;;;-4.58;100.00
63654;BME280;49809;47.418;19.080;2022-12-18T01:08:23;102007.56;;;-4.46;100.00
63654;BME280;49809;47.418;19.080;2022-12-18T01:11:51;102005.97;;;-4.59;100.00
63654;BME280;49809;47.418;19.080;2022-12-18T01:15:29;102019.56;;;-4.68;100.00
63654;BME280;49809;47.418;19.080;2022-12-18T01:19:09;102016.59;;;-4.51;100.00
63654;BME280;49809;47.418;19.080;2022-12-18T01:22:40;102018.91;;;-4.59;100.00
63654;BME280;49809;47.418;19.080;2022-12-18T01:26:47;102020.97;;;-4.64;100.00
63654;BME280;49809;47.418;19.080;2022-12-18T01:30:15;102030.47;;;-4.76;100.00
63654;BME280;49809;47.418;19.080;2022-12-18T01:33:50;102032.78;;;-4.60;100.00
63654;BME280;49809;47.418;19.080;2022-12-18T01:36:56;102037.13;;;-4.61;100.00
63654;BME280;49809;47.418;19.080;2022-12-18T01:39:59;102035.94;;;-4.57;100.00
63654;BME280;49809;47.418;19.080;2022-12-18T01:43:45;102030.19;;;-4.60;100.00
63654;BME280;49809;47.418;19.080;2022-12-18T01:47:03;102043.87;;;-4.47;100.00
63654;BME280;49809;47.418;19.080;2022-12-18T01:50:43;102048.22;;;-4.48;100.00
63654;BME280;49809;47.418;19.080;2022-12-18T01:54:12;102053.63;;;-4.40;100.00
63654;BME280;49809;47.418;19.080;2022-12-18T01:57:31;102047.69;;;-4.29;100.00
63654;BME280;49809;47.418;19.080;2022-12-18T02:01:15;102051.69;;;-4.25;100.00
63654;BME280;49809;47.418;19.080;2022-12-18T02:05:10;102056.38;;;-4.30;100.00
63654;BME280;49809;47.418;19.080;2022-12-18T02:09:10;102061.03;;;-4.46;100.00
63654;BME280;49809;47.418;19.080;2022-12-18T02:12:58;102074.72;;;-4.57;100.00
63654;BME280;49809;47.418;19.080;2022-12-18T02:20:35;102074.47;;;-4.77;100.00
63654;BME280;49809;47.418;19.080;2022-12-18T02:24:41;102077.47;;;-4.84;100.00
63654;BME280;49809;47.418;19.080;2022-12-18T02:28:26;102082.94;;;-4.99;100.00
63654;BME280;49809;47.418;19.080;2022-12-18T02:31:53;102083.34;;;-5.05;100.00
63654;BME280;49809;47.418;19.080;2022-12-18T02:35:40;102088.09;;;-4.99;100.00
63654;BME280;49809;47.418;19.080;2022-12-18T02:39:11;102093.25;;;-5.12;100.00
63654;BME280;49809;47.418;19.080;2022-12-18T02:42:42;102101.66;;;-5.21;100.00
63654;BME280;49809;47.418;19.080;2022-12-18T02:50:04;102106.81;;;-5.21;100.00
63654;BME280;49809;47.418;19.080;2022-12-18T02:53:55;102106.91;;;-5.10;100.00
63654;BME280;49809;47.418;19.080;2022-12-18T02:57:38;102106.44;;;-4.91;100.00
63654;BME280;49809;47.418;19.080;2022-12-18T03:05:12;102126.06;;;-4.89;100.00
63654;BME280;49809;47.418;19.080;2022-12-18T03:08:49;102127.94;;;-4.91;100.00
63654;BME280;49809;47.418;19.080;2022-12-18T03:12:30;102128.97;;;-4.93;100.00
63654;BME280;49809;47.418;19.080;2022-12-18T03:15:58;102138.03;;;-4.88;100.00
63654;BME280;49809;47.418;19.080;2022-12-18T03:19:22;102144.22;;;-4.77;100.00
63654;BME280;49809;47.418;19.080;2022-12-18T03:22:51;102143.31;;;-4.76;100.00
63654;BME280;49809;47.418;19.080;2022-12-18T03:26:32;102139.97;;;-4.78;100.00
63654;BME280;49809;47.418;19.080;2022-12-18T03:30:12;102140.50;;;-4.73;100.00
63654;BME280;49809;47.418;19.080;2022-12-18T03:33:54;102157.66;;;-4.72;100.00
63654;BME280;49809;47.418;19.080;2022-12-18T03:37:52;102158.38;;;-4.70;100.00
63654;BME280;49809;47.418;19.080;2022-12-18T03:41:29;102165.06;;;-4.68;100.00
63654;BME280;49809;47.418;19.080;2022-12-18T03:48:44;102186.53;;;-4.55;100.00
63654;BME280;49809;47.418;19.080;2022-12-18T03:52:35;102176.19;;;-4.42;100.00
63654;BME280;49809;47.418;19.080;2022-12-18T03:55:41;102183.50;;;-4.36;100.00
63654;BME280;49809;47.418;19.080;2022-12-18T03:59:23;102180.91;;;-4.36;100.00
63654;BME280;49809;47.418;19.080;2022-12-18T04:03:08;102174.41;;;-4.42;100.00
63654;BME280;49809;47.418;19.080;2022-12-18T04:06:52;102176.19;;;-4.55;100.00
63654;BME280;49809;47.418;19.080;2022-12-18T04:10:00;102175.31;;;-4.66;100.00
63654;BME280;49809;47.418;19.080;2022-12-18T04:13:33;102185.97;;;-4.84;100.00
63654;BME280;49809;47.418;19.080;2022-12-18T04:17:17;102189.19;;;-4.93;100.00
63654;BME280;49809;47.418;19.080;2022-12-18T04:20:52;102187.25;;;-5.02;100.00
63654;BME280;49809;47.418;19.080;2022-12-18T04:24:21;102197.69;;;-5.16;100.00
63654;BME280;49809;47.418;19.080;2022-12-18T04:27:54;102202.31;;;-5.21;100.00
63654;BME280;49809;47.418;19.080;2022-12-18T04:31:42;102208.84;;;-5.28;100.00
63654;BME280;49809;47.418;19.080;2022-12-18T04:34:50;102201.91;;;-5.28;100.00
63654;BME280;49809;47.418;19.080;2022-12-18T04:38:26;102209.03;;;-5.44;100.00
63654;BME280;49809;47.418;19.080;2022-12-18T04:41:58;102208.06;;;-5.55;100.00
63654;BME280;49809;47.418;19.080;2022-12-18T04:45:22;102218.69;;;-5.60;100.00
63654;BME280;49809;47.418;19.080;2022-12-18T04:49:00;102227.47;;;-5.62;100.00
63654;BME280;49809;47.418;19.080;2022-12-18T04:52:32;102229.69;;;-5.71;100.00
63654;BME280;49809;47.418;19.080;2022-12-18T04:55:35;102239.22;;;-5.58;100.00
63654;BME280;49809;47.418;19.080;2022-12-18T04:59:04;102244.34;;;-5.71;100.00
63654;BME280;49809;47.418;19.080;2022-12-18T05:02:38;102246.41;;;-5.76;100.00
63654;BME280;49809;47.418;19.080;2022-12-18T05:05:45;102248.25;;;-5.78;100.00
63654;BME280;49809;47.418;19.080;2022-12-18T05:09:03;102246.19;;;-5.86;100.00
63654;BME280;49809;47.418;19.080;2022-12-18T05:12:38;102250.91;;;-5.92;100.00
63654;BME280;49809;47.418;19.080;2022-12-18T05:16:41;102249.47;;;-5.96;100.00
63654;BME280;49809;47.418;19.080;2022-12-18T05:20:37;102262.06;;;-5.92;100.00
63654;BME280;49809;47.418;19.080;2022-12-18T05:23:57;102258.03;;;-5.96;100.00
63654;BME280;49809;47.418;19.080;2022-12-18T05:27:27;102263.19;;;-5.96;100.00
63654;BME280;49809;47.418;19.080;2022-12-18T05:31:03;102258.13;;;-5.97;100.00
63654;BME280;49809;47.418;19.080;2022-12-18T05:34:39;102267.97;;;-6.04;100.00
63654;BME280;49809;47.418;19.080;2022-12-18T05:38:13;102282.72;;;-6.06;100.00
63654;BME280;49809;47.418;19.080;2022-12-18T05:41:45;102284.94;;;-6.14;100.00
63654;BME280;49809;47.418;19.080;2022-12-18T05:45:04;102292.88;;;-6.17;100.00
63654;BME280;49809;47.418;19.080;2022-12-18T05:48:40;102292.13;;;-6.19;100.00
63654;BME280;49809;47.418;19.080;2022-12-18T05:52:20;102296.00;;;-6.12;100.00
63654;BME280;49809;47.418;19.080;2022-12-18T05:55:47;102300.69;;;-6.19;100.00
63654;BME280;49809;47.418;19.080;2022-12-18T05:59:07;102301.50;;;-6.18;100.00
63654;BME280;49809;47.418;19.080;2022-12-18T06:02:26;102303.81;;;-6.28;100.00
63654;BME280;49809;47.418;19.080;2022-12-18T06:06:00;102304.66;;;-6.27;100.00
63654;BME280;49809;47.418;19.080;2022-12-18T06:09:42;102300.06;;;-6.36;100.00
63654;BME280;49809;47.418;19.080;2022-12-18T06:13:12;102307.50;;;-6.32;100.00
63654;BME280;49809;47.418;19.080;2022-12-18T06:16:32;102309.62;;;-6.38;100.00
63654;BME280;49809;47.418;19.080;2022-12-18T06:20:07;102324.53;;;-6.43;100.00
63654;BME280;49809;47.418;19.080;2022-12-18T06:23:36;102313.16;;;-6.39;100.00
63654;BME280;49809;47.418;19.080;2022-12-18T06:26:40;102320.97;;;-6.41;100.00
63654;BME280;49809;47.418;19.080;2022-12-18T06:30:10;102328.69;;;-6.41;100.00
63654;BME280;49809;47.418;19.080;2022-12-18T06:33:53;102336.34;;;-6.39;100.00
63654;BME280;49809;47.418;19.080;2022-12-18T06:37:11;102347.91;;;-6.46;100.00
63654;BME280;49809;47.418;19.080;2022-12-18T06:40:54;102352.72;;;-6.40;100.00
63654;BME280;49809;47.418;19.080;2022-12-18T06:44:11;102353.81;;;-6.44;100.00
63654;BME280;49809;47.418;19.080;2022-12-18T06:47:41;102363.94;;;-6.41;100.00
63654;BME280;49809;47.418;19.080;2022-12-18T06:51:10;102361.53;;;-6.44;100.00
63654;BME280;49809;47.418;19.080;2022-12-18T06:55:06;102361.81;;;-6.35;100.00
63654;BME280;49809;47.418;19.080;2022-12-18T06:58:11;102371.66;;;-6.27;100.00
63654;BME280;49809;47.418;19.080;2022-12-18T07:02:17;102378.75;;;-6.31;100.00
63654;BME280;49809;47.418;19.080;2022-12-18T07:05:50;102386.22;;;-6.26;100.00
63654;BME280;49809;47.418;19.080;2022-12-18T07:09:09;102392.34;;;-6.29;100.00
63654;BME280;49809;47.418;19.080;2022-12-18T07:12:32;102405.00;;;-6.10;100.00
63654;BME280;49809;47.418;19.080;2022-12-18T07:16:38;102404.25;;;-6.12;100.00
63654;BME280;49809;47.418;19.080;2022-12-18T07:20:25;102408.50;;;-5.97;100.00
63654;BME280;49809;47.418;19.080;2022-12-18T07:23:47;102417.59;;;-5.91;100.00
63654;BME280;49809;47.418;19.080;2022-12-18T07:27:12;102423.91;;;-5.83;100.00
63654;BME280;49809;47.418;19.080;2022-12-18T07:30:37;102427.97;;;-5.79;100.00
63654;BME280;49809;47.418;19.080;2022-12-18T07:34:27;102431.00;;;-5.72;100.00
63654;BME280;49809;47.418;19.080;2022-12-18T07:38:00;102444.34;;;-5.65;100.00
63654;BME280;49809;47.418;19.080;2022-12-18T07:41:09;102441.56;;;-5.48;100.00
63654;BME280;49809;47.418;19.080;2022-12-18T07:45:01;102445.31;;;-5.40;100.00
63654;BME280;49809;47.418;19.080;2022-12-18T07:49:11;102449.44;;;-5.23;100.00
63654;BME280;49809;47.418;19.080;2022-12-18T07:52:14;102457.31;;;-5.12;100.00
63654;BME280;49809;47.418;19.080;2022-12-18T07:56:18;102467.25;;;-5.06;100.00
63654;BME280;49809;47.418;19.080;2022-12-18T07:59:55;102466.12;;;-5.02;100.00
63654;BME280;49809;47.418;19.080;2022-12-18T08:03:41;102477.75;;;-4.95;100.00
63654;BME280;49809;47.418;19.080;2022-12-18T08:07:01;102482.84;;;-4.80;100.00
63654;BME280;49809;47.418;19.080;2022-12-18T08:10:06;102483.94;;;-4.58;100.00
63654;BME280;49809;47.418;19.080;2022-12-18T08:13:42;102489.75;;;-4.54;100.00
63654;BME280;49809;47.418;19.080;2022-12-18T08:17:22;102494.81;;;-4.40;100.00
63654;BME280;49809;47.418;19.080;2022-12-18T08:20:51;102494.03;;;-4.28;100.00
63654;BME280;49809;47.418;19.080;2022-12-18T08:24:01;102495.47;;;-4.24;100.00
63654;BME280;49809;47.418;19.080;2022-12-18T08:28:09;102496.53;;;-4.14;100.00
63654;BME280;49809;47.418;19.080;2022-12-18T08:31:31;102500.16;;;-4.04;100.00
63654;BME280;49809;47.418;19.080;2022-12-18T08:35:13;102508.13;;;-3.94;100.00
63654;BME280;49809;47.418;19.080;2022-12-18T08:38:51;102523.34;;;-3.89;100.00
63654;BME280;49809;47.418;19.080;2022-12-18T08:42:12;102515.19;;;-3.83;100.00
63654;BME280;49809;47.418;19.080;2022-12-18T08:45:59;102511.13;;;-3.75;100.00
63654;BME280;49809;47.418;19.080;2022-12-18T08:49:04;102512.47;;;-3.69;100.00
63654;BME280;49809;47.418;19.080;2022-12-18T08:52:35;102514.84;;;-3.54;100.00
63654;BME280;49809;47.418;19.080;2022-12-18T08:56:09;102525.50;;;-3.45;100.00
63654;BME280;49809;47.418;19.080;2022-12-18T08:59:28;102520.50;;;-3.36;100.00
63654;BME280;49809;47.418;19.080;2022-12-18T09:03:19;102521.00;;;-3.31;100.00
63654;BME280;49809;47.418;19.080;2022-12-18T09:06:43;102524.13;;;-3.26;100.00
63654;BME280;49809;47.418;19.080;2022-12-18T09:10:23;102532.72;;;-3.25;100.00
63654;BME280;49809;47.418;19.080;2022-12-18T09:13:46;102537.25;;;-3.16;100.00
63654;BME280;49809;47.418;19.080;2022-12-18T09:17:41;102546.72;;;-3.04;100.00
63654;BME280;49809;47.418;19.080;2022-12-18T09:21:12;102534.69;;;-2.92;99.55
63654;BME280;49809;47.418;19.080;2022-12-18T09:24:30;102539.81;;;-2.80;98.79
63654;BME280;49809;47.418;19.080;2022-12-18T09:27:34;102540.94;;;-2.71;98.76
63654;BME280;49809;47.418;19.080;2022-12-18T09:31:07;102533.53;;;-2.65;98.61
63654;BME280;49809;47.418;19.080;2022-12-18T09:34:30;102531.34;;;-2.47;98.26
63654;BME280;49809;47.418;19.080;2022-12-18T09:37:53;102542.00;;;-2.39;98.45
63654;BME280;49809;47.418;19.080;2022-12-18T09:45:02;102540.75;;;-2.22;98.37
63654;BME280;49809;47.418;19.080;2022-12-18T09:48:38;102540.69;;;-2.09;97.86
63654;BME280;49809;47.418;19.080;2022-12-18T09:52:32;102534.22;;;-2.04;97.36
63654;BME280;49809;47.418;19.080;2022-12-18T09:55:51;102542.34;;;-1.97;95.12
63654;BME280;49809;47.418;19.080;2022-12-18T09:59:30;102548.41;;;-1.86;95.75
63654;BME280;49809;47.418;19.080;2022-12-18T10:03:33;102534.84;;;-1.89;94.80
63654;BME280;49809;47.418;19.080;2022-12-18T10:07:05;102536.97;;;-1.72;97.27
63654;BME280;49809;47.418;19.080;2022-12-18T10:14:34;102535.44;;;-1.52;92.91
63654;BME280;49809;47.418;19.080;2022-12-18T10:18:11;102525.19;;;-1.43;94.25
63654;BME280;49809;47.418;19.080;2022-12-18T10:24:56;102524.41;;;-1.11;92.42
63654;BME280;49809;47.418;19.080;2022-12-18T10:28:10;102516.41;;;-1.08;92.29
63654;BME280;49809;47.418;19.080;2022-12-18T10:31:23;102523.72;;;-1.13;92.71
63654;BME280;49809;47.418;19.080;2022-12-18T10:34:26;102512.63;;;-1.15;91.73
63654;BME280;49809;47.418;19.080;2022-12-18T10:37:33;102511.44;;;-1.11;90.80
63654;BME280;49809;47.418;19.080;2022-12-18T10:44:35;102509.06;;;-0.92;88.05
63654;BME280;49809;47.418;19.080;2022-12-18T10:47:48;102507.09;;;-0.79;88.87
63654;BME280;49809;47.418;19.080;2022-12-18T10:54:52;102513.00;;;-0.77;88.06
63654;BME280;49809;47.418;19.080;2022-12-18T10:58:31;102512.50;;;-0.71;85.69
63654;BME280;49809;47.418;19.080;2022-12-18T11:01:58;102509.75;;;-0.58;87.71
63654;BME280;49809;47.418;19.080;2022-12-18T11:05:40;102517.50;;;-0.47;85.99
63654;BME280;49809;47.418;19.080;2022-12-18T11:09:22;102509.25;;;-0.31;85.20
63654;BME280;49809;47.418;19.080;2022-12-18T11:12:27;102510.50;;;-0.15;85.57
63654;BME280;49809;47.418;19.080;2022-12-18T11:15:33;102502.84;;;-0.07;85.99
63654;BME280;49809;47.418;19.080;2022-12-18T11:18:37;102503.59;;;0.05;86.86
63654;BME280;49809;47.418;19.080;2022-12-18T11:21:55;102501.13;;;0.34;83.86
63654;BME280;49809;47.418;19.080;2022-12-18T11:25:02;102499.91;;;0.78;82.22
63654;BME280;49809;47.418;19.080;2022-12-18T11:31:41;102492.84;;;1.28;77.47
63654;BME280;49809;47.418;19.080;2022-12-18T11:34:57;102492.00;;;0.99;77.64
63654;BME280;49809;47.418;19.080;2022-12-18T11:38:16;102491.69;;;0.92;77.23
63654;BME280;49809;47.418;19.080;2022-12-18T11:41:50;102481.00;;;0.95;77.36
63654;BME280;49809;47.418;19.080;2022-12-18T11:48:34;102481.03;;;1.05;77.83
63654;BME280;49809;47.418;19.080;2022-12-18T11:52:33;102477.72;;;0.93;80.66
63654;BME280;49809;47.418;19.080;2022-12-18T12:02:29;102477.47;;;1.35;79.67
63654;BME280;49809;47.418;19.080;2022-12-18T12:12:42;102470.87;;;1.11;78.78
63654;BME280;49809;47.418;19.080;2022-12-18T12:38:34;102472.09;;;1.46;77.83
63654;BME280;49809;47.418;19.080;2022-12-18T12:43:22;102482.69;;;1.54;76.15
63654;BME280;49809;47.418;19.080;2022-12-18T12:46:39;102481.31;;;1.40;77.35
63654;BME280;49809;47.418;19.080;2022-12-18T12:50:14;102484.19;;;1.47;75.94
63654;BME280;49809;47.418;19.080;2022-12-18T12:53:47;102490.94;;;1.49;74.98
63654;BME280;49809;47.418;19.080;2022-12-18T12:58:23;102488.75;;;1.45;75.75
63654;BME280;49809;47.418;19.080;2022-12-18T13:02:06;102494.78;;;1.45;74.94
63654;BME280;49809;47.418;19.080;2022-12-18T13:06:09;102507.41;;;1.40;74.67
63654;BME280;49809;47.418;19.080;2022-12-18T13:13:57;102507.41;;;1.69;73.67
63654;BME280;49809;47.418;19.080;2022-12-18T13:17:35;102507.09;;;1.82;72.89
63654;BME280;49809;47.418;19.080;2022-12-18T13:21:27;102513.66;;;1.95;71.51
63654;BME280;49809;47.418;19.080;2022-12-18T13:25:32;102523.09;;;2.15;70.00
63654;BME280;49809;47.418;19.080;2022-12-18T13:29:11;102505.19;;;2.57;66.65
63654;BME280;49809;47.418;19.080;2022-12-18T13:32:41;102517.66;;;2.73;64.96
63654;BME280;49809;47.418;19.080;2022-12-18T13:36:32;102516.88;;;2.90;65.18
63654;BME280;49809;47.418;19.080;2022-12-18T13:44:31;102528.72;;;2.21;69.73
63654;BME280;49809;47.418;19.080;2022-12-18T13:48:24;102532.88;;;2.13;70.49
63654;BME280;49809;47.418;19.080;2022-12-18T13:52:17;102532.75;;;2.05;71.78
63654;BME280;49809;47.418;19.080;2022-12-18T13:55:44;102538.41;;;1.91;73.22
63654;BME280;49809;47.418;19.080;2022-12-18T14:02:56;102543.97;;;1.59;74.34
63654;BME280;49809;47.418;19.080;2022-12-18T14:06:38;102537.91;;;1.30;76.18
63654;BME280;49809;47.418;19.080;2022-12-18T14:10:15;102547.19;;;1.13;76.84
63654;BME280;49809;47.418;19.080;2022-12-18T14:13:39;102548.53;;;0.98;77.89
63654;BME280;49809;47.418;19.080;2022-12-18T14:16:59;102546.81;;;0.78;78.23
63654;BME280;49809;47.418;19.080;2022-12-18T14:20:35;102545.81;;;0.60;78.62
63654;BME280;49809;47.418;19.080;2022-12-18T14:24:17;102552.44;;;0.33;80.17
63654;BME280;49809;47.418;19.080;2022-12-18T14:31:36;102541.63;;;-0.04;82.37
63654;BME280;49809;47.418;19.080;2022-12-18T14:35:13;102550.41;;;-0.25;82.92
63654;BME280;49809;47.418;19.080;2022-12-18T14:38:54;102552.78;;;-0.54;83.91
63654;BME280;49809;47.418;19.080;2022-12-18T14:42:22;102549.91;;;-0.83;85.22
63654;BME280;49809;47.418;19.080;2022-12-18T14:45:41;102561.75;;;-1.01;86.32
63654;BME280;49809;47.418;19.080;2022-12-18T14:52:47;102576.31;;;-1.32;88.61
63654;BME280;49809;47.418;19.080;2022-12-18T14:56:17;102591.75;;;-1.53;88.90
63654;BME280;49809;47.418;19.080;2022-12-18T15:00:07;102597.97;;;-1.78;89.59
63654;BME280;49809;47.418;19.080;2022-12-18T15:03:46;102598.75;;;-1.99;90.96
63654;BME280;49809;47.418;19.080;2022-12-18T15:07:23;102596.69;;;-2.18;92.45
63654;BME280;49809;47.418;19.080;2022-12-18T15:11:00;102593.78;;;-2.37;93.33
63654;BME280;49809;47.418;19.080;2022-12-18T15:14:41;102607.94;;;-2.54;94.76
63654;BME280;49809;47.418;19.080;2022-12-18T15:18:18;102613.28;;;-2.68;95.68
63654;BME280;49809;47.418;19.080;2022-12-18T15:21:55;102622.16;;;-2.83;96.36
63654;BME280;49809;47.418;19.080;2022-12-18T15:25:35;102626.53;;;-2.96;97.40
63654;BME280;49809;47.418;19.080;2022-12-18T15:28:57;102627.78;;;-3.15;98.31
63654;BME280;49809;47.418;19.080;2022-12-18T15:32:29;102636.94;;;-3.22;99.35
63654;BME280;49809;47.418;19.080;2022-12-18T15:36:07;102634.22;;;-3.33;99.84
63654;BME280;49809;47.418;19.080;2022-12-18T15:39:41;102640.78;;;-3.40;100.00
63654;BME280;49809;47.418;19.080;2022-12-18T15:43:05;102649.88;;;-3.47;100.00
63654;BME280;49809;47.418;19.080;2022-12-18T15:50:46;102653.47;;;-3.62;100.00
63654;BME280;49809;47.418;19.080;2022-12-18T15:54:29;102659.16;;;-3.70;100.00
63654;BME280;49809;47.418;19.080;2022-12-18T15:58:36;102670.22;;;-3.80;100.00
63654;BME280;49809;47.418;19.080;2022-12-18T16:02:19;102670.59;;;-3.86;100.00
63654;BME280;49809;47.418;19.080;2022-12-18T16:06:00;102677.84;;;-3.91;100.00
63654;BME280;49809;47.418;19.080;2022-12-18T16:09:40;102670.69;;;-4.01;100.00
63654;BME280;49809;47.418;19.080;2022-12-18T16:13:19;102672.00;;;-4.08;100.00
63654;BME280;49809;47.418;19.080;2022-12-18T16:17:05;102680.91;;;-4.12;100.00
63654;BME280;49809;47.418;19.080;2022-12-18T16:21:01;102683.87;;;-4.18;100.00
63654;BME280;49809;47.418;19.080;2022-12-18T16:24:37;102681.47;;;-4.21;100.00
63654;BME280;49809;47.418;19.080;2022-12-18T16:28:16;102694.97;;;-4.30;100.00
63654;BME280;49809;47.418;19.080;2022-12-18T16:32:00;102697.75;;;-4.33;100.00
63654;BME280;49809;47.418;19.080;2022-12-18T16:35:30;102705.44;;;-4.31;100.00
63654;BME280;49809;47.418;19.080;2022-12-18T16:38:55;102704.97;;;-4.38;100.00
63654;BME280;49809;47.418;19.080;2022-12-18T16:42:34;102702.69;;;-4.43;100.00
63654;BME280;49809;47.418;19.080;2022-12-18T16:45:58;102704.06;;;-4.37;100.00
63654;BME280;49809;47.418;19.080;2022-12-18T16:49:02;102709.41;;;-4.40;100.00
63654;BME280;49809;47.418;19.080;2022-12-18T16:52:37;102720.69;;;-4.41;100.00
63654;BME280;49809;47.418;19.080;2022-12-18T16:56:13;102727.91;;;-4.46;100.00
63654;BME280;49809;47.418;19.080;2022-12-18T16:59:34;102731.22;;;-4.58;100.00
63654;BME280;49809;47.418;19.080;2022-12-18T17:03:09;102731.78;;;-4.53;100.00
63654;BME280;49809;47.418;19.080;2022-12-18T17:06:45;102732.13;;;-4.59;100.00
63654;BME280;49809;47.418;19.080;2022-12-18T17:10:17;102729.00;;;-4.64;100.00
63654;BME280;49809;47.418;19.080;2022-12-18T17:13:54;102719.06;;;-4.70;100.00
63654;BME280;49809;47.418;19.080;2022-12-18T17:17:26;102717.31;;;-4.70;100.00
63654;BME280;49809;47.418;19.080;2022-12-18T17:20:44;102712.22;;;-4.71;100.00
63654;BME280;49809;47.418;19.080;2022-12-18T17:24:19;102709.56;;;-4.70;100.00
63654;BME280;49809;47.418;19.080;2022-12-18T17:27:52;102699.47;;;-4.89;100.00
63654;BME280;49809;47.418;19.080;2022-12-18T17:31:39;102701.50;;;-4.94;100.00
63654;BME280;49809;47.418;19.080;2022-12-18T17:35:09;102713.34;;;-4.90;100.00
63654;BME280;49809;47.418;19.080;2022-12-18T17:39:03;102705.41;;;-5.01;100.00
63654;BME280;49809;47.418;19.080;2022-12-18T17:42:46;102712.59;;;-5.06;100.00
63654;BME280;49809;47.418;19.080;2022-12-18T17:46:29;102715.25;;;-5.07;100.00
63654;BME280;49809;47.418;19.080;2022-12-18T17:50:11;102727.34;;;-5.08;100.00
63654;BME280;49809;47.418;19.080;2022-12-18T17:53:58;102721.78;;;-5.16;100.00
63654;BME280;49809;47.418;19.080;2022-12-18T18:06:29;102724.31;;;-5.14;100.00
63654;BME280;49809;47.418;19.080;2022-12-18T18:10:15;102726.03;;;-5.15;100.00
63654;BME280;49809;47.418;19.080;2022-12-18T18:13:38;102721.78;;;-5.16;100.00
63654;BME280;49809;47.418;19.080;2022-12-18T18:18:14;102720.88;;;-5.29;100.00
63654;BME280;49809;47.418;19.080;2022-12-18T18:21:49;102729.34;;;-5.27;100.00
63654;BME280;49809;47.418;19.080;2022-12-18T18:25:29;102731.84;;;-5.26;100.00
63654;BME280;49809;47.418;19.080;2022-12-18T18:36:30;102725.37;;;-5.33;100.00
63654;BME280;49809;47.418;19.080;2022-12-18T18:40:32;102722.59;;;-5.44;100.00
63654;BME280;49809;47.418;19.080;2022-12-18T18:45:05;102736.94;;;-5.54;100.00
63654;BME280;49809;47.418;19.080;2022-12-18T18:48:52;102748.44;;;-5.59;100.00
63654;BME280;49809;47.418;19.080;2022-12-18T18:52:22;102752.50;;;-5.55;100.00
63654;BME280;49809;47.418;19.080;2022-12-18T19:03:27;102760.06;;;-5.52;100.00
63654;BME280;49809;47.418;19.080;2022-12-18T19:06:58;102754.34;;;-5.57;100.00
63654;BME280;49809;47.418;19.080;2022-12-18T19:10:22;102760.75;;;-5.64;100.00
63654;BME280;49809;47.418;19.080;2022-12-18T19:14:06;102763.66;;;-5.55;100.00
63654;BME280;49809;47.418;19.080;2022-12-18T19:17:46;102764.34;;;-5.67;100.00
63654;BME280;49809;47.418;19.080;2022-12-18T19:21:33;102767.41;;;-5.60;100.00
63654;BME280;49809;47.418;19.080;2022-12-18T19:25:07;102771.50;;;-5.72;100.00
63654;BME280;49809;47.418;19.080;2022-12-18T19:28:33;102778.31;;;-5.71;100.00
63654;BME280;49809;47.418;19.080;2022-12-18T19:31:55;102793.78;;;-5.71;100.00
63654;BME280;49809;47.418;19.080;2022-12-18T19:35:23;102790.09;;;-5.81;100.00
63654;BME280;49809;47.418;19.080;2022-12-18T19:39:13;102791.66;;;-5.79;100.00
63654;BME280;49809;47.418;19.080;2022-12-18T19:42:35;102801.97;;;-5.79;100.00
63654;BME280;49809;47.418;19.080;2022-12-18T19:46:18;102800.03;;;-5.75;100.00
63654;BME280;49809;47.418;19.080;2022-12-18T19:49:52;102803.97;;;-5.84;100.00
63654;BME280;49809;47.418;19.080;2022-12-18T19:53:38;102801.22;;;-5.81;100.00
63654;BME280;49809;47.418;19.080;2022-12-18T19:56:51;102811.53;;;-5.81;100.00
63654;BME280;49809;47.418;19.080;2022-12-18T20:00:26;102813.06;;;-5.92;100.00
63654;BME280;49809;47.418;19.080;2022-12-18T20:04:06;102812.56;;;-5.99;100.00
63654;BME280;49809;47.418;19.080;2022-12-18T20:07:36;102819.41;;;-5.98;100.00
63654;BME280;49809;47.418;19.080;2022-12-18T20:11:20;102811.66;;;-5.98;100.00
63654;BME280;49809;47.418;19.080;2022-12-18T20:15:04;102815.59;;;-5.91;100.00
63654;BME280;49809;47.418;19.080;2022-12-18T20:18:31;102820.75;;;-5.91;100.00